Time;durP1;ratioP1;P1;durP2;ratioP2;P2;SDS_P1;SDS_P2;PMS_P1;PMS_P2;Temp;Humidity;BMP_temperature;BMP_pressure;BME280_temperature;BME280_humidity;BME280_pressure;Samples;Min_cycle;Max_cycle;Signal;HPM_P1;HPM_P2
2022/11/13 00:02:12;;;;;;;1.97;1.77;;;19.20;44.30;18.20;102402.00;;;;5072227;28;20120;-72
2022/11/13 00:04:37;;;;;;;2.73;2.20;;;19.10;44.30;18.20;102396.00;;;;5072086;28;20123;-72
2022/11/13 00:07:03;;;;;;;2.23;1.57;;;19.20;44.30;18.20;102397.00;;;;5054688;28;20112;-72
2022/11/13 00:09:29;;;;;;;3.23;2.07;;;19.10;44.20;18.20;102392.00;;;;5071581;28;20111;-72
2022/11/13 00:11:55;;;;;;;3.30;1.90;;;19.10;44.30;18.20;102390.00;;;;5071348;28;20106;-72
2022/11/13 00:14:20;;;;;;;2.40;1.93;;;19.20;44.30;18.20;102385.00;;;;5049945;28;20120;-72
2022/11/13 00:16:46;;;;;;;2.80;1.77;;;19.00;44.20;18.20;102401.00;;;;5072031;28;20071;-72
2022/11/13 00:19:12;;;;;;;2.10;1.80;;;19.10;44.30;18.20;102400.00;;;;5071316;28;20116;-72
2022/11/13 00:21:37;;;;;;;2.07;1.53;;;19.20;44.30;18.20;102393.00;;;;5071607;28;20497;-72
2022/11/13 00:24:03;;;;;;;2.37;1.90;;;19.10;44.30;18.20;102394.00;;;;5070854;28;20025;-72
2022/11/13 00:26:29;;;;;;;2.27;1.70;;;19.10;44.20;18.20;102398.00;;;;5071262;28;20075;-72
2022/11/13 00:28:57;;;;;;;2.57;2.20;;;19.10;44.20;18.20;102392.00;;;;5053563;28;20029;-72
2022/11/13 00:31:23;;;;;;;3.05;1.92;;;19.10;44.30;18.20;102400.00;;;;5052893;28;21033;-72
2022/11/13 00:33:49;;;;;;;3.10;2.10;;;19.20;44.30;18.20;102394.00;;;;5053568;28;20044;-72
2022/11/13 00:36:20;;;;;;;2.80;2.10;;;19.10;44.20;18.20;102388.00;;;;5053696;28;20040;-72
2022/11/13 00:38:46;;;;;;;2.40;2.00;;;19.10;44.20;18.20;102389.00;;;;5070946;28;20056;-72
2022/11/13 00:41:12;;;;;;;2.90;1.77;;;19.10;44.20;18.20;102378.00;;;;5054042;28;20032;-72
2022/11/13 00:43:38;;;;;;;3.47;2.20;;;19.10;44.20;18.20;102382.00;;;;5071129;28;20107;-72
2022/11/13 00:46:04;;;;;;;3.30;2.17;;;19.10;44.20;18.20;102372.00;;;;5071129;28;20032;-73
2022/11/13 00:48:29;;;;;;;2.60;1.88;;;19.10;44.20;18.20;102367.00;;;;5070898;28;20056;-72
2022/11/13 00:50:55;;;;;;;2.30;2.10;;;19.10;44.20;18.20;102375.00;;;;5053336;28;20032;-72
2022/11/13 00:53:21;;;;;;;2.43;2.00;;;19.10;44.20;18.20;102363.00;;;;5071527;28;20111;-72
2022/11/13 00:55:47;;;;;;;3.77;2.50;;;19.10;44.20;18.20;102358.00;;;;5070689;28;20041;-72
2022/11/13 00:58:13;;;;;;;4.07;2.20;;;19.00;44.20;18.20;102363.00;;;;5076490;28;20112;-72
2022/11/13 01:00:40;;;;;;;3.67;2.65;;;19.10;44.20;18.20;102363.00;;;;5053057;28;20064;-72
2022/11/13 01:03:05;;;;;;;2.63;2.22;;;19.10;44.20;18.20;102363.00;;;;5070218;28;20036;-72
2022/11/13 01:05:35;;;;;;;2.90;1.93;;;19.10;44.20;18.20;102364.00;;;;5070880;28;20041;-73
2022/11/13 01:08:01;;;;;;;3.85;2.30;;;19.10;44.20;18.20;102358.00;;;;5070868;28;20106;-72
2022/11/13 01:10:27;;;;;;;4.03;2.30;;;19.10;44.20;18.20;102362.00;;;;5078590;28;20421;-73
2022/11/13 01:12:52;;;;;;;3.37;1.93;;;19.10;44.20;18.10;102362.00;;;;5069594;28;20123;-72
2022/11/13 01:15:18;;;;;;;2.53;2.20;;;19.10;44.20;18.20;102363.00;;;;5070493;28;20052;-72
2022/11/13 01:17:44;;;;;;;3.47;1.80;;;19.10;44.20;18.10;102362.00;;;;5077191;28;20491;-72
2022/11/13 01:20:10;;;;;;;2.17;1.87;;;19.10;44.20;18.10;102360.00;;;;5069985;28;20115;-72
2022/11/13 01:22:36;;;;;;;3.20;2.10;;;19.10;44.20;18.10;102361.00;;;;5069980;28;20111;-73
2022/11/13 01:25:01;;;;;;;2.97;2.20;;;19.10;44.20;18.10;102354.00;;;;5069447;28;20036;-72
2022/11/13 01:27:27;;;;;;;5.87;1.83;;;19.10;44.20;18.10;102352.00;;;;5070500;28;20099;-72
2022/11/13 01:29:53;;;;;;;2.93;2.10;;;19.10;44.20;18.10;102365.00;;;;5069856;28;20107;-72
2022/11/13 01:32:18;;;;;;;2.47;2.23;;;19.10;44.20;18.10;102357.00;;;;5069874;28;20237;-72
2022/11/13 01:34:44;;;;;;;2.83;2.30;;;19.00;44.10;18.10;102351.00;;;;5068917;28;20112;-72
2022/11/13 01:37:10;;;;;;;3.30;2.37;;;19.10;44.20;18.10;102354.00;;;;5070284;28;20063;-72
2022/11/13 01:39:36;;;;;;;3.40;2.20;;;19.00;44.10;18.10;102359.00;;;;5069391;28;20024;-72
2022/11/13 01:42:01;;;;;;;3.27;2.10;;;19.00;44.10;18.10;102358.00;;;;5069246;28;20085;-72
2022/11/13 01:44:46;;;;;;;3.53;2.60;;;19.10;44.20;18.10;102349.00;;;;5069983;28;20112;-72
2022/11/13 01:47:12;;;;;;;3.03;2.45;;;19.00;44.10;18.10;102350.00;;;;5052393;28;20024;-72
2022/11/13 01:49:39;;;;;;;3.13;2.63;;;19.00;44.10;18.10;102345.00;;;;5052439;28;20030;-72
2022/11/13 01:52:07;;;;;;;;;;;19.00;44.10;18.10;102338.00;;;;5053149;28;20391;-72
2022/11/13 01:54:41;;;;;;;2.88;2.35;;;19.00;44.20;18.10;102345.00;;;;5051217;28;19919;-73
2022/11/13 01:57:07;;;;;;;4.35;2.88;;;19.00;44.00;18.10;102343.00;;;;5035674;28;20032;-72
2022/11/13 01:59:37;;;;;;;3.07;2.77;;;19.00;44.80;18.10;102345.00;;;;5052227;28;20414;-72
2022/11/13 02:02:03;;;;;;;3.33;2.67;;;19.00;44.10;18.10;102339.00;;;;5052134;28;20032;-72
2022/11/13 02:04:29;;;;;;;3.88;2.78;;;19.00;44.10;18.10;102333.00;;;;5069286;28;20462;-72
2022/11/13 02:06:59;;;;;;;3.47;2.50;;;18.90;44.10;18.00;102330.00;;;;5035109;28;20039;-72
2022/11/13 02:09:34;;;;;;;4.50;2.95;;;19.00;44.10;18.00;102321.00;;;;5061306;28;20024;-72
2022/11/13 02:12:00;;;;;;;2.55;2.33;;;19.00;44.10;18.00;102317.00;;;;5059242;28;20478;-72
2022/11/13 02:14:27;;;;;;;2.83;2.23;;;19.00;44.10;18.00;102317.00;;;;5051141;28;20040;-72
2022/11/13 02:16:55;;;;;;;;;;;19.00;44.10;18.00;102319.00;;;;5070635;28;20036;-72
2022/11/13 02:19:35;;;;;;;2.83;2.20;;;19.00;44.20;18.00;102321.00;;;;5051571;28;20357;-72
2022/11/13 02:22:39;;;;;;;2.92;2.25;;;19.00;44.00;18.00;102315.00;;;;5036033;28;20035;-72
2022/11/13 02:25:05;;;;;;;2.60;2.40;;;18.90;44.00;18.00;102313.00;;;;5035509;28;20515;-72
2022/11/13 02:27:47;;;;;;;2.50;2.22;;;19.00;44.70;18.00;102309.00;;;;5042227;28;20032;-72
2022/11/13 02:30:24;;;;;;;2.80;2.42;;;18.90;44.00;18.00;102313.00;;;;5050724;28;20039;-72
2022/11/13 02:32:51;;;;;;;3.17;2.20;;;18.90;44.00;18.00;102309.00;;;;5050874;28;20367;-72
2022/11/13 02:35:34;;;;;;;3.28;2.60;;;18.90;44.00;18.00;102309.00;;;;5059707;28;20480;-72
2022/11/13 02:38:03;;;;;;;2.50;2.20;;;18.90;44.00;18.00;102315.00;;;;5050936;28;20032;-72
2022/11/13 02:40:29;;;;;;;3.30;2.70;;;18.90;44.00;18.00;102317.00;;;;5068857;28;20032;-72
2022/11/13 02:42:55;;;;;;;2.92;2.60;;;18.90;44.10;18.00;102309.00;;;;5052797;28;20043;-72
2022/11/13 02:45:21;;;;;;;2.53;2.33;;;19.00;44.10;17.90;102303.00;;;;5069735;28;20037;-72
2022/11/13 02:47:47;;;;;;;3.43;2.90;;;18.90;44.10;18.00;102303.00;;;;5069879;28;20029;-72
2022/11/13 02:50:12;;;;;;;3.23;2.93;;;18.90;44.00;18.00;102300.00;;;;5072995;28;20043;-72
2022/11/13 02:52:38;;;;;;;5.37;2.47;;;18.90;44.00;17.90;102289.00;;;;5078691;28;20084;-72
2022/11/13 02:55:04;;;;;;;2.93;2.40;;;18.90;44.10;18.00;102296.00;;;;5073236;28;20116;-72
2022/11/13 02:57:30;;;;;;;2.97;2.60;;;18.80;44.10;18.00;102289.00;;;;5055061;28;20024;-72
2022/11/13 02:59:56;;;;;;;3.13;2.83;;;18.90;44.00;17.90;102292.00;;;;5073642;28;20055;-72
2022/11/13 03:02:22;;;;;;;3.13;2.83;;;18.90;44.00;18.00;102287.00;;;;5074033;28;20115;-72
2022/11/13 03:04:47;;;;;;;2.77;2.47;;;18.90;44.00;17.90;102287.00;;;;5072846;28;20123;-72
2022/11/13 03:07:13;;;;;;;3.37;2.70;;;19.00;44.10;17.90;102290.00;;;;5069633;28;20107;-72
2022/11/13 03:09:39;;;;;;;2.73;2.43;;;18.90;44.00;17.90;102286.00;;;;5073033;28;20096;-72
2022/11/13 03:12:07;;;;;;;3.53;2.80;;;18.90;44.00;17.90;102289.00;;;;5068628;28;20025;-72
2022/11/13 03:14:32;;;;;;;3.45;2.30;;;18.90;44.00;17.90;102279.00;;;;5055143;28;20051;-73
2022/11/13 03:16:58;;;;;;;2.77;2.40;;;18.80;44.00;17.90;102279.00;;;;5073407;28;20486;-73
2022/11/13 03:19:24;;;;;;;3.20;2.60;;;18.80;43.90;17.90;102281.00;;;;5072540;28;20476;-72
2022/11/13 03:21:50;;;;;;;3.23;2.90;;;18.90;44.00;17.90;102283.00;;;;5072553;28;20488;-72
2022/11/13 03:24:15;;;;;;;3.17;2.87;;;18.90;43.90;17.90;102284.00;;;;5054292;28;20036;-72
2022/11/13 03:26:41;;;;;;;2.93;2.63;;;18.90;43.90;17.90;102282.00;;;;5053045;28;20060;-72
2022/11/13 03:29:07;;;;;;;3.33;2.63;;;18.90;43.90;17.90;102289.00;;;;5072322;28;20111;-72
2022/11/13 03:31:33;;;;;;;2.80;2.60;;;18.90;43.90;17.90;102290.00;;;;5079847;28;20115;-72
2022/11/13 03:33:58;;;;;;;2.77;2.50;;;18.80;43.90;17.90;102289.00;;;;5079045;28;20147;-72
2022/11/13 03:36:24;;;;;;;3.03;2.73;;;18.80;43.90;17.90;102275.00;;;;5072809;28;20131;-72
2022/11/13 03:38:50;;;;;;;2.83;2.50;;;18.80;43.90;17.90;102273.00;;;;5072045;28;20107;-72
2022/11/13 03:41:15;;;;;;;3.53;2.53;;;18.80;43.80;17.90;102268.00;;;;5072232;28;20036;-72
2022/11/13 03:43:41;;;;;;;2.80;2.60;;;18.80;43.80;17.90;102270.00;;;;5071748;28;20120;-72
2022/11/13 03:46:07;;;;;;;2.87;2.67;;;18.80;43.80;17.90;102269.00;;;;5072543;28;20035;-73
2022/11/13 03:48:33;;;;;;;4.30;3.60;;;18.80;43.80;17.90;102257.00;;;;5072041;28;20493;-72
2022/11/13 03:50:59;;;;;;;3.97;2.80;;;18.80;43.80;17.90;102254.00;;;;5079794;28;20032;-72
2022/11/13 03:53:25;;;;;;;3.80;3.13;;;18.90;43.80;17.90;102261.00;;;;5072293;28;20149;-72
2022/11/13 03:55:50;;;;;;;3.20;2.67;;;18.80;43.80;17.90;102244.00;;;;5054601;28;20033;-72
2022/11/13 03:58:16;;;;;;;4.40;3.23;;;18.80;43.80;17.90;102251.00;;;;5036820;28;20169;-72
2022/11/13 04:00:42;;;;;;;2.90;2.60;;;18.80;43.80;17.90;102247.00;;;;5070898;28;20102;-72
2022/11/13 04:03:08;;;;;;;3.03;2.63;;;18.80;43.80;17.90;102253.00;;;;5072397;28;20036;-72
2022/11/13 04:05:34;;;;;;;3.20;2.90;;;18.90;43.80;17.90;102242.00;;;;5071329;28;20455;-72
2022/11/13 04:07:59;;;;;;;3.43;2.90;;;18.80;43.70;17.90;102243.00;;;;5053368;28;20108;-72
2022/11/13 04:10:25;;;;;;;3.20;2.90;;;18.90;43.80;17.90;102237.00;;;;5071607;28;20035;-72
2022/11/13 04:12:51;;;;;;;3.50;2.77;;;18.80;43.70;17.90;102229.00;;;;5053796;28;20124;-72
2022/11/13 04:15:17;;;;;;;2.83;2.43;;;18.80;43.70;17.90;102232.00;;;;5071903;28;20131;-73
2022/11/13 04:17:42;;;;;;;4.43;3.50;;;18.80;43.70;17.90;102223.00;;;;5054847;28;20037;-72
2022/11/13 04:20:08;;;;;;;3.60;3.07;;;18.80;43.70;17.80;102226.00;;;;5071158;28;20578;-72
2022/11/13 04:22:35;;;;;;;3.42;2.92;;;18.80;44.40;17.80;102233.00;;;;5039351;28;20029;-72
2022/11/13 04:25:00;;;;;;;3.40;3.10;;;18.80;43.70;17.80;102226.00;;;;5053687;28;20033;-72
2022/11/13 04:27:26;;;;;;;4.03;2.97;;;18.80;43.70;17.80;102227.00;;;;5054279;28;20028;-72
2022/11/13 04:29:52;;;;;;;4.10;2.97;;;18.80;43.70;17.80;102221.00;;;;5071853;28;20048;-72
2022/11/13 04:32:18;;;;;;;3.43;3.13;;;18.80;43.70;17.80;102222.00;;;;5070923;28;20060;-72
2022/11/13 04:34:43;;;;;;;4.20;3.23;;;18.80;43.60;17.80;102224.00;;;;5070196;28;20553;-72
2022/11/13 04:37:09;;;;;;;3.10;2.80;;;18.70;43.60;17.80;102210.00;;;;5071573;28;20127;-72
2022/11/13 04:39:35;;;;;;;3.13;2.83;;;18.80;43.60;17.80;102204.00;;;;5052882;28;20450;-72
2022/11/13 04:44:45;;;;;;;3.13;2.72;;;18.80;43.60;17.80;102197.00;;;;5050272;28;20087;-73
2022/11/13 04:47:11;;;;;;;3.30;3.00;;;18.80;43.60;17.80;102195.00;;;;5070893;28;20033;-72
2022/11/13 04:49:37;;;;;;;2.90;2.60;;;18.80;43.60;17.80;102190.00;;;;5053516;28;20032;-72
2022/11/13 04:52:03;;;;;;;3.73;2.80;;;18.70;43.50;17.80;102196.00;;;;5071940;28;20646;-73
2022/11/13 04:54:28;;;;;;;3.77;2.83;;;18.70;43.50;17.80;102192.00;;;;5053028;28;20039;-72
2022/11/13 04:56:54;;;;;;;3.03;2.70;;;18.70;43.50;17.80;102203.00;;;;5071465;28;20067;-72
2022/11/13 04:59:20;;;;;;;3.47;2.60;;;18.80;43.60;17.80;102202.00;;;;5070445;28;20075;-72
2022/11/13 05:01:45;;;;;;;3.63;3.10;;;18.60;43.50;17.80;102198.00;;;;5070446;28;20072;-72
2022/11/13 05:04:12;;;;;;;4.27;3.03;;;18.70;43.50;17.80;102192.00;;;;5070439;28;20111;-72
2022/11/13 05:06:38;;;;;;;4.22;2.95;;;18.80;43.60;17.80;102199.00;;;;5050519;28;20081;-72
2022/11/13 05:09:04;;;;;;;2.83;2.63;;;18.70;43.50;17.70;102187.00;;;;5070729;28;20556;-72
2022/11/13 05:11:29;;;;;;;3.33;2.87;;;18.60;43.50;17.70;102190.00;;;;5080170;28;20474;-72
2022/11/13 05:13:55;;;;;;;3.87;3.27;;;18.70;43.50;17.70;102187.00;;;;5069869;28;20115;-72
2022/11/13 05:16:21;;;;;;;3.30;3.00;;;18.70;43.50;17.70;102185.00;;;;5063117;28;20427;-72
2022/11/13 05:18:47;;;;;;;2.70;2.50;;;18.70;43.50;17.70;102185.00;;;;5070351;28;20064;-72
2022/11/13 05:21:12;;;;;;;3.70;3.03;;;18.70;43.50;17.70;102180.00;;;;5070384;28;20445;-72
2022/11/13 05:23:38;;;;;;;4.90;2.90;;;18.60;43.40;17.70;102183.00;;;;5070085;28;20028;-72
2022/11/13 05:26:09;;;;;;;3.10;2.80;;;18.60;43.40;17.70;102179.00;;;;5052919;28;20118;-72
2022/11/13 05:28:35;;;;;;;3.65;2.78;;;18.60;43.40;17.70;102180.00;;;;5075443;28;20035;-72
2022/11/13 05:31:12;;;;;;;4.60;2.67;;;18.60;43.40;17.70;102178.00;;;;5052505;28;20028;-72
2022/11/13 05:33:38;;;;;;;2.78;2.58;;;18.60;43.40;17.70;102175.00;;;;5056162;28;20067;-72
2022/11/13 05:36:09;;;;;;;3.80;2.92;;;18.60;43.40;17.70;102174.00;;;;5052613;28;20532;-72
2022/11/13 05:38:35;;;;;;;3.65;2.80;;;18.60;43.30;17.70;102168.00;;;;5069863;28;20039;-72
2022/11/13 05:41:12;;;;;;;2.90;2.63;;;18.60;43.40;17.70;102167.00;;;;5044127;28;20037;-72
2022/11/13 05:43:38;;;;;;;3.65;3.03;;;18.60;43.40;17.60;102157.00;;;;5070246;28;20029;-72
2022/11/13 05:46:30;;;;;;;3.37;2.90;;;18.70;43.40;17.70;102155.00;;;;5069049;28;20039;-72
2022/11/13 05:48:58;;;;;;;3.17;2.50;;;18.70;43.40;17.70;102159.00;;;;5065680;28;20482;-72
2022/11/13 05:51:32;;;;;;;2.95;2.65;;;18.60;43.30;17.70;102150.00;;;;5052338;28;20509;-73
2022/11/13 05:53:58;;;;;;;3.28;2.97;;;18.60;43.30;17.70;102150.00;;;;5070246;28;20036;-72
2022/11/13 05:56:36;;;;;;;3.00;2.53;;;18.60;43.30;17.70;102147.00;;;;5051791;28;20107;-72
2022/11/13 05:59:02;;;;;;;4.20;3.17;;;18.60;43.20;17.70;102154.00;;;;5069264;28;20067;-72
2022/11/13 06:01:37;;;;;;;4.47;2.72;;;18.60;43.20;17.70;102147.00;;;;5049257;28;20393;-72
2022/11/13 06:04:03;;;;;;;3.50;3.20;;;18.60;43.20;17.70;102148.00;;;;5069533;28;20106;-72
2022/11/13 06:06:29;;;;;;;3.05;2.78;;;18.60;43.20;17.70;102150.00;;;;5069327;28;20044;-72
2022/11/13 06:08:57;;;;;;;2.92;2.67;;;18.60;43.20;17.70;102152.00;;;;5070208;28;20036;-73
2022/11/13 06:11:25;;;;;;;5.00;3.10;;;18.60;43.20;17.70;102144.00;;;;5045498;28;20058;-72
2022/11/13 06:13:51;;;;;;;3.30;3.00;;;18.60;43.20;17.70;102148.00;;;;5069150;28;20462;-73
2022/11/13 06:16:20;;;;;;;3.08;2.60;;;18.60;43.20;17.70;102143.00;;;;5069982;28;20117;-72
2022/11/13 06:18:46;;;;;;;3.47;2.90;;;18.70;43.20;17.70;102139.00;;;;5069610;28;20039;-72
2022/11/13 06:21:18;;;;;;;3.25;2.72;;;18.60;43.90;17.70;102140.00;;;;5069271;28;20021;-72
2022/11/13 06:23:44;;;;;;;4.00;3.15;;;18.60;43.20;17.60;102135.00;;;;5049651;28;20468;-72
2022/11/13 06:26:15;;;;;;;3.20;2.80;;;18.50;43.10;17.70;102137.00;;;;5056223;28;20032;-72
2022/11/13 06:28:40;;;;;;;3.05;2.72;;;18.60;43.10;17.60;102131.00;;;;5056255;28;20020;-72
2022/11/13 06:31:11;;;;;;;3.07;2.40;;;18.50;43.00;17.60;102135.00;;;;5055554;28;20074;-72
2022/11/13 06:33:37;;;;;;;3.42;2.72;;;18.60;43.00;17.60;102128.00;;;;5035977;28;20032;-72
2022/11/13 06:36:04;;;;;;;3.15;2.80;;;18.60;43.00;17.60;102125.00;;;;5061999;28;20025;-72
2022/11/13 06:38:32;;;;;;;3.70;2.85;;;18.60;43.00;17.60;102126.00;;;;5055241;28;20032;-72
2022/11/13 06:40:57;;;;;;;3.03;2.70;;;18.60;43.00;17.60;102121.00;;;;5073740;28;20033;-72
2022/11/13 06:43:23;;;;;;;3.40;2.53;;;18.50;43.00;17.60;102130.00;;;;5055803;28;20400;-72
2022/11/13 06:45:49;;;;;;;3.47;3.13;;;18.60;43.00;17.60;102131.00;;;;5074152;28;20166;-72
2022/11/13 06:48:15;;;;;;;3.40;3.10;;;18.60;43.00;17.60;102116.00;;;;5072611;28;20116;-72
2022/11/13 06:50:40;;;;;;;3.00;2.70;;;18.60;43.00;17.60;102127.00;;;;5055598;28;20223;-72
2022/11/13 06:53:06;;;;;;;2.97;2.53;;;18.50;42.90;17.60;102128.00;;;;5055742;28;20363;-72
2022/11/13 06:55:32;;;;;;;3.83;3.10;;;18.60;42.90;17.60;102128.00;;;;5073628;28;20032;-72
2022/11/13 06:57:58;;;;;;;2.97;2.57;;;18.50;42.90;17.60;102119.00;;;;5055086;28;20032;-72
2022/11/13 07:00:23;;;;;;;3.00;2.67;;;18.50;42.90;17.60;102118.00;;;;5072806;28;20103;-72
2022/11/13 07:02:49;;;;;;;3.00;2.70;;;18.50;42.90;17.60;102120.00;;;;5072792;28;20145;-72
2022/11/13 07:05:15;;;;;;;5.70;3.40;;;18.50;42.80;17.60;102113.00;;;;5072254;28;20118;-72
2022/11/13 07:07:41;;;;;;;3.60;2.75;;;18.40;42.80;17.60;102113.00;;;;5055511;28;20032;-72
2022/11/13 07:10:07;;;;;;;3.97;3.07;;;18.50;42.80;17.50;102106.00;;;;5073283;28;20046;-72
2022/11/13 07:12:33;;;;;;;3.15;2.80;;;18.50;42.80;17.60;102109.00;;;;5036929;28;20144;-73
2022/11/13 07:14:59;;;;;;;3.07;2.83;;;18.50;42.80;17.50;102104.00;;;;5070280;28;20050;-72
2022/11/13 07:17:24;;;;;;;3.07;2.67;;;18.50;42.80;17.50;102100.00;;;;5055431;28;20525;-73
2022/11/13 07:19:50;;;;;;;2.83;2.50;;;18.50;42.70;17.50;102105.00;;;;5072332;28;20116;-72
2022/11/13 07:22:16;;;;;;;3.30;3.00;;;18.50;42.70;17.50;102103.00;;;;5072411;28;20112;-72
2022/11/13 07:24:41;;;;;;;3.37;2.73;;;18.50;42.70;17.50;102112.00;;;;5051717;28;20045;-72
2022/11/13 07:27:07;;;;;;;3.10;2.77;;;18.50;42.70;17.50;102117.00;;;;5072579;28;20103;-72
2022/11/13 07:29:35;;;;;;;3.28;2.97;;;18.40;42.60;17.50;102113.00;;;;5052353;28;20482;-72
2022/11/13 07:32:00;;;;;;;3.35;2.88;;;18.50;42.60;17.50;102113.00;;;;5070742;28;20036;-72
2022/11/13 07:34:26;;;;;;;2.80;2.60;;;18.40;42.50;17.50;102109.00;;;;5071818;28;20033;-72
2022/11/13 07:36:52;;;;;;;3.00;2.70;;;18.50;42.60;17.50;102111.00;;;;5071132;28;20060;-73
2022/11/13 07:39:18;;;;;;;3.20;2.73;;;18.50;42.60;17.50;102114.00;;;;5071779;28;20175;-72
2022/11/13 07:41:43;;;;;;;3.47;3.17;;;18.40;42.50;17.50;102110.00;;;;5072803;28;20067;-72
2022/11/13 07:44:09;;;;;;;5.23;3.10;;;18.50;42.60;17.50;102113.00;;;;5053546;28;20067;-72
2022/11/13 07:46:35;;;;;;;3.07;2.67;;;18.50;42.60;17.50;102117.00;;;;5071887;28;20381;-72
2022/11/13 07:49:00;;;;;;;3.10;2.90;;;18.40;42.50;17.50;102114.00;;;;5052376;28;20070;-72
2022/11/13 07:51:26;;;;;;;4.10;3.17;;;18.50;42.60;17.50;102108.00;;;;5070894;28;20151;-72
2022/11/13 07:53:52;;;;;;;3.33;3.03;;;18.40;42.50;17.50;102104.00;;;;5070762;28;20170;-72
2022/11/13 07:56:18;;;;;;;3.97;3.40;;;18.40;42.50;17.50;102104.00;;;;5071903;28;20127;-72
2022/11/13 07:58:43;;;;;;;3.40;3.10;;;18.40;42.50;17.50;102112.00;;;;5071119;28;20127;-72
2022/11/13 08:01:09;;;;;;;5.10;3.60;;;18.50;42.50;17.50;102106.00;;;;5068007;28;20111;-72
2022/11/13 08:03:36;;;;;;;3.90;3.47;;;18.40;42.50;17.50;102107.00;;;;5049121;28;20066;-73
2022/11/13 08:06:06;;;;;;;4.72;3.38;;;18.40;42.30;17.40;102105.00;;;;5063707;28;20071;-73
2022/11/13 08:08:32;;;;;;;5.80;4.90;;;18.40;43.00;17.30;102099.00;;;;5067683;28;20458;-72
2022/11/13 08:11:00;;;;;;;4.65;3.90;;;18.40;41.60;17.30;102106.00;;;;5048396;28;20028;-73
2022/11/13 08:13:25;;;;;;;4.70;3.90;;;18.40;41.70;17.20;102100.00;;;;5047341;28;20099;-73
2022/11/13 08:15:52;;;;;;;8.07;4.37;;;18.30;41.80;17.10;102095.00;;;;5068512;28;20028;-73
2022/11/13 08:18:17;;;;;;;5.55;3.90;;;18.30;41.80;17.10;102098.00;;;;5037093;28;20025;-72
2022/11/13 08:20:43;;;;;;;4.93;4.03;;;18.30;42.10;17.10;102095.00;;;;5061022;28;20042;-72
2022/11/13 08:23:09;;;;;;;6.00;4.10;;;18.20;42.10;17.10;102094.00;;;;5070000;28;20040;-73
2022/11/13 08:25:35;;;;;;;5.80;4.07;;;18.20;42.20;17.10;102084.00;;;;5048724;28;20028;-72
2022/11/13 08:28:01;;;;;;;5.22;4.07;;;18.10;42.20;17.10;102092.00;;;;5052126;28;20025;-72
2022/11/13 08:30:27;;;;;;;7.77;3.77;;;18.10;42.30;17.10;102078.00;;;;5069750;28;20196;-72
2022/11/13 08:32:53;;;;;;;4.25;3.60;;;18.10;42.40;17.20;102089.00;;;;5050213;28;20063;-72
2022/11/13 08:35:19;;;;;;;7.00;4.17;;;18.20;42.50;17.20;102085.00;;;;5076641;28;20039;-72
2022/11/13 08:37:45;;;;;;;4.03;3.43;;;18.20;42.50;17.20;102077.00;;;;5053757;28;20063;-72
2022/11/13 08:40:11;;;;;;;4.43;3.80;;;18.10;42.50;17.20;102077.00;;;;5066387;28;20561;-78
2022/11/13 08:42:36;;;;;;;12.43;4.32;;;18.10;42.50;17.20;102083.00;;;;5052610;28;20429;-72
2022/11/13 08:45:03;;;;;;;7.13;5.67;;;18.20;42.30;17.20;102079.00;;;;5068353;28;20086;-73
2022/11/13 08:47:29;;;;;;;6.43;4.47;;;18.20;41.80;17.10;102087.00;;;;5047966;28;20082;-72
2022/11/13 08:49:55;;;;;;;5.50;5.00;;;18.20;41.60;17.00;102085.00;;;;5051007;28;20029;-72
2022/11/13 08:52:20;;;;;;;7.23;4.83;;;18.20;41.50;17.00;102085.00;;;;5053422;28;20038;-73
2022/11/13 08:54:46;;;;;;;7.10;5.63;;;18.10;41.40;16.90;102079.00;;;;5069879;28;20036;-72
2022/11/13 08:57:12;;;;;;;6.83;5.37;;;18.10;41.50;16.90;102079.00;;;;5063717;28;20032;-82
2022/11/13 08:59:38;;;;;;;6.23;5.43;;;18.00;41.60;16.80;102089.00;;;;5035102;28;20028;-73
2022/11/13 09:02:04;;;;;;;5.30;4.27;;;18.00;42.00;16.80;102076.00;;;;5060781;28;20123;-73
2022/11/13 09:04:29;;;;;;;5.40;4.90;;;17.90;42.10;16.80;102079.00;;;;5072597;28;20116;-73
2022/11/13 09:06:55;;;;;;;6.07;4.83;;;17.90;43.00;16.70;102077.00;;;;5064249;28;20020;-73
2022/11/13 09:09:22;;;;;;;8.13;4.93;;;17.80;42.40;16.70;102071.00;;;;5062530;28;20081;-72
2022/11/13 09:11:47;;;;;;;;;;;17.80;42.60;16.70;102064.00;;;;5065251;28;20037;-72
2022/11/13 09:14:13;;;;;;;6.35;5.57;;;17.80;42.70;16.70;102076.00;;;;5066135;28;19912;-72
2022/11/13 09:16:39;;;;;;;10.33;6.00;;;17.70;42.70;16.60;102074.00;;;;5067389;28;20032;-72
2022/11/13 09:19:05;;;;;;;6.20;5.10;;;17.70;42.90;16.60;102076.00;;;;5045968;28;20390;-72
2022/11/13 09:21:31;;;;;;;7.20;5.33;;;17.70;43.10;16.60;102062.00;;;;5029180;28;20119;-72
2022/11/13 09:23:56;;;;;;;6.00;5.37;;;17.70;43.20;16.60;102060.00;;;;5046895;28;20079;-71
2022/11/13 09:26:22;;;;;;;7.53;4.87;;;17.60;43.30;16.60;102056.00;;;;5067966;28;20445;-71
2022/11/13 09:28:48;;;;;;;7.50;5.13;;;17.60;44.20;16.60;102057.00;;;;5065750;28;20538;-73
2022/11/13 09:31:14;;;;;;;7.10;5.60;;;17.60;43.60;16.60;102055.00;;;;5064936;28;20054;-72
2022/11/13 09:33:39;;;;;;;8.50;5.53;;;17.60;43.80;16.60;102049.00;;;;5048753;28;20036;-72
2022/11/13 09:36:13;;;;;;;9.03;4.80;;;17.60;44.10;16.70;102055.00;;;;5065502;28;20153;-74
2022/11/13 09:38:39;;;;;;;12.70;5.40;;;17.60;44.10;16.70;102058.00;;;;5048655;28;20505;-72
2022/11/13 09:41:16;;;;;;;7.53;5.07;;;17.70;44.10;16.80;102054.00;;;;5065874;28;20036;-71
2022/11/13 09:43:54;;;;;;;6.90;4.82;;;17.70;44.20;16.80;102056.00;;;;5034503;28;20486;-72
2022/11/13 09:46:29;;;;;;;7.43;4.97;;;17.70;44.10;16.90;102062.00;;;;5046835;28;20020;-73
2022/11/13 09:48:59;;;;;;;4.93;4.25;;;17.80;44.10;17.00;102055.00;;;;5062703;28;20081;-72
2022/11/13 09:51:28;;;;;;;5.97;4.63;;;17.90;44.10;17.00;102061.00;;;;5041471;28;20090;-72
2022/11/13 09:53:54;;;;;;;35.05;5.85;;;17.90;44.10;17.10;102053.00;;;;5038884;28;20032;-73
2022/11/13 09:56:36;;;;;;;10.50;4.63;;;17.90;44.00;17.10;102050.00;;;;5031930;28;20028;-72
2022/11/13 09:59:54;;;;;;;5.93;4.20;;;18.00;44.00;17.10;102040.00;;;;5047085;28;20107;-73
2022/11/13 10:03:08;;;;;;;6.95;4.32;;;18.10;44.00;17.10;102032.00;;;;5044763;28;20028;-72
2022/11/13 10:05:48;;;;;;;11.05;4.47;;;18.10;43.90;17.20;102043.00;;;;5067152;28;20102;-72
2022/11/13 10:08:50;;;;;;;5.55;4.30;;;18.10;43.90;17.20;102038.00;;;;5064481;28;20056;-72
2022/11/13 10:11:37;;;;;;;8.20;4.75;;;18.20;43.80;17.30;102027.00;;;;5051101;28;20110;-72
2022/11/13 10:14:48;;;;;;;5.78;4.43;;;18.20;43.80;17.30;102020.00;;;;5065334;28;20025;-72
2022/11/13 10:17:32;;;;;;;9.15;4.03;;;18.20;43.80;17.30;102020.00;;;;5002180;28;20088;-72
2022/11/13 10:20:08;;;;;;;9.65;4.30;;;18.30;43.80;17.40;102012.00;;;;5027686;28;20095;-71
2022/11/13 10:22:51;;;;;;;6.78;3.92;;;18.30;43.70;17.40;102008.00;;;;5038640;28;20086;-72
2022/11/13 10:25:24;;;;;;;8.85;3.90;;;18.50;43.70;17.40;101999.00;;;;5053742;28;20020;-72
2022/11/13 10:27:53;;;;;;;5.38;4.00;;;18.40;43.60;17.50;101995.00;;;;5049313;28;20029;-71
2022/11/13 10:30:19;;;;;;;7.95;3.92;;;18.40;43.60;17.50;101997.00;;;;5055333;28;20025;-71
2022/11/13 10:32:45;;;;;;;5.43;3.57;;;18.50;43.60;17.50;101995.00;;;;5066665;28;20039;-71
2022/11/13 10:35:45;;;;;;;4.93;3.80;;;18.50;43.60;17.50;101988.00;;;;5048052;28;20028;-73
2022/11/13 10:38:23;;;;;;;4.85;3.92;;;18.60;43.70;17.60;101990.00;;;;5066901;28;20446;-72
2022/11/13 10:40:49;;;;;;;5.82;3.78;;;18.60;43.60;17.60;101985.00;;;;5049128;28;20028;-72
2022/11/13 10:43:22;;;;;;;5.53;3.80;;;18.60;43.50;17.60;101982.00;;;;5049223;28;20051;-73
2022/11/13 10:46:03;;;;;;;6.03;3.35;;;18.70;43.60;17.60;101976.00;;;;5050527;28;20115;-72
2022/11/13 10:48:34;;;;;;;4.63;3.47;;;18.70;43.50;17.60;101965.00;;;;5051044;28;20475;-72
2022/11/13 10:51:06;;;;;;;4.97;3.47;;;18.70;43.50;17.70;101963.00;;;;5052045;28;20016;-73
2022/11/13 10:53:40;;;;;;;5.35;3.38;;;18.70;43.50;17.70;101955.00;;;;5049968;28;20039;-72
2022/11/13 10:56:28;;;;;;;5.40;3.78;;;18.80;43.60;17.70;101954.00;;;;5040390;28;20028;-74